sensor_id;sensor_type;location;lat;lon;timestamp;temperature;humidity
42199;DHT22;27868;45.184;5.786;2023-06-24T00:02:26;22.30;67.70
42199;DHT22;27868;45.184;5.786;2023-06-24T00:05:10;22.30;67.30
42199;DHT22;27868;45.184;5.786;2023-06-24T00:07:55;22.30;67.00
42199;DHT22;27868;45.184;5.786;2023-06-24T00:10:43;22.30;66.40
42199;DHT22;27868;45.184;5.786;2023-06-24T00:13:27;22.30;66.70
42199;DHT22;27868;45.184;5.786;2023-06-24T00:16:13;22.20;67.00
42199;DHT22;27868;45.184;5.786;2023-06-24T00:18:57;22.20;66.90
42199;DHT22;27868;45.184;5.786;2023-06-24T00:21:42;22.20;67.80
42199;DHT22;27868;45.184;5.786;2023-06-24T00:24:26;22.10;67.30
42199;DHT22;27868;45.184;5.786;2023-06-24T00:27:11;22.10;67.60
42199;DHT22;27868;45.184;5.786;2023-06-24T00:29:55;22.10;67.80
42199;DHT22;27868;45.184;5.786;2023-06-24T00:32:40;22.10;67.70
42199;DHT22;27868;45.184;5.786;2023-06-24T00:35:24;22.00;67.60
42199;DHT22;27868;45.184;5.786;2023-06-24T00:38:09;22.00;67.90
42199;DHT22;27868;45.184;5.786;2023-06-24T00:40:53;22.00;68.50
42199;DHT22;27868;45.184;5.786;2023-06-24T00:43:38;21.90;68.00
42199;DHT22;27868;45.184;5.786;2023-06-24T00:46:26;21.90;68.20
42199;DHT22;27868;45.184;5.786;2023-06-24T00:49:11;21.90;68.90
42199;DHT22;27868;45.184;5.786;2023-06-24T00:51:59;21.90;68.40
42199;DHT22;27868;45.184;5.786;2023-06-24T00:54:45;21.80;68.40
42199;DHT22;27868;45.184;5.786;2023-06-24T00:57:29;21.80;68.50
42199;DHT22;27868;45.184;5.786;2023-06-24T01:00:14;21.80;68.60
42199;DHT22;27868;45.184;5.786;2023-06-24T01:03:01;21.80;69.20
42199;DHT22;27868;45.184;5.786;2023-06-24T01:05:47;21.80;68.60
42199;DHT22;27868;45.184;5.786;2023-06-24T01:08:31;21.80;69.40
42199;DHT22;27868;45.184;5.786;2023-06-24T01:11:16;21.70;68.70
42199;DHT22;27868;45.184;5.786;2023-06-24T01:14:01;21.70;68.80
42199;DHT22;27868;45.184;5.786;2023-06-24T01:16:50;21.70;69.00
42199;DHT22;27868;45.184;5.786;2023-06-24T01:19:54;21.70;68.90
42199;DHT22;27868;45.184;5.786;2023-06-24T01:25:40;21.60;69.00
42199;DHT22;27868;45.184;5.786;2023-06-24T01:31:40;21.60;69.30
42199;DHT22;27868;45.184;5.786;2023-06-24T01:34:28;21.50;69.20
42199;DHT22;27868;45.184;5.786;2023-06-24T01:37:17;21.50;69.20
42199;DHT22;27868;45.184;5.786;2023-06-24T01:43:26;21.50;69.50
42199;DHT22;27868;45.184;5.786;2023-06-24T01:46:11;21.40;69.60
42199;DHT22;27868;45.184;5.786;2023-06-24T01:49:01;21.50;69.50
42199;DHT22;27868;45.184;5.786;2023-06-24T01:51:46;21.50;69.70
42199;DHT22;27868;45.184;5.786;2023-06-24T01:54:32;21.40;70.30
42199;DHT22;27868;45.184;5.786;2023-06-24T01:57:18;21.40;70.30
42199;DHT22;27868;45.184;5.786;2023-06-24T02:00:03;21.40;69.60
42199;DHT22;27868;45.184;5.786;2023-06-24T02:02:50;21.40;69.60
42199;DHT22;27868;45.184;5.786;2023-06-24T02:05:35;21.40;69.60
42199;DHT22;27868;45.184;5.786;2023-06-24T02:08:23;21.30;70.40
42199;DHT22;27868;45.184;5.786;2023-06-24T02:11:08;21.30;69.80
42199;DHT22;27868;45.184;5.786;2023-06-24T02:13:53;21.30;69.90
42199;DHT22;27868;45.184;5.786;2023-06-24T02:16:38;21.30;70.00
42199;DHT22;27868;45.184;5.786;2023-06-24T02:19:25;21.30;70.60
42199;DHT22;27868;45.184;5.786;2023-06-24T02:22:11;21.20;69.90
42199;DHT22;27868;45.184;5.786;2023-06-24T02:24:56;21.20;70.00
42199;DHT22;27868;45.184;5.786;2023-06-24T02:27:41;21.20;70.10
42199;DHT22;27868;45.184;5.786;2023-06-24T02:30:25;21.20;70.10
42199;DHT22;27868;45.184;5.786;2023-06-24T02:33:10;21.10;70.00
42199;DHT22;27868;45.184;5.786;2023-06-24T02:35:56;21.10;70.00
42199;DHT22;27868;45.184;5.786;2023-06-24T02:38:40;21.10;69.90
42199;DHT22;27868;45.184;5.786;2023-06-24T02:41:25;21.10;69.90
42199;DHT22;27868;45.184;5.786;2023-06-24T02:44:09;21.10;70.00
42199;DHT22;27868;45.184;5.786;2023-06-24T02:46:54;21.00;70.00
42199;DHT22;27868;45.184;5.786;2023-06-24T02:49:39;21.00;70.00
42199;DHT22;27868;45.184;5.786;2023-06-24T02:52:24;21.00;70.00
42199;DHT22;27868;45.184;5.786;2023-06-24T02:55:13;21.00;70.20
42199;DHT22;27868;45.184;5.786;2023-06-24T02:57:59;20.90;70.20
42199;DHT22;27868;45.184;5.786;2023-06-24T03:00:43;20.90;70.30
42199;DHT22;27868;45.184;5.786;2023-06-24T03:03:28;20.90;70.50
42199;DHT22;27868;45.184;5.786;2023-06-24T03:06:13;20.80;71.10
42199;DHT22;27868;45.184;5.786;2023-06-24T03:09:01;20.80;70.50
42199;DHT22;27868;45.184;5.786;2023-06-24T03:11:48;20.80;70.60
42199;DHT22;27868;45.184;5.786;2023-06-24T03:14:32;20.80;70.70
42199;DHT22;27868;45.184;5.786;2023-06-24T03:17:17;20.70;70.80
42199;DHT22;27868;45.184;5.786;2023-06-24T03:20:01;20.70;70.90
42199;DHT22;27868;45.184;5.786;2023-06-24T03:22:46;20.60;70.90
42199;DHT22;27868;45.184;5.786;2023-06-24T03:25:31;20.60;71.60
42199;DHT22;27868;45.184;5.786;2023-06-24T03:28:15;20.60;71.10
42199;DHT22;27868;45.184;5.786;2023-06-24T03:31:00;20.60;71.80
42199;DHT22;27868;45.184;5.786;2023-06-24T03:33:45;20.60;71.00
42199;DHT22;27868;45.184;5.786;2023-06-24T03:36:29;20.50;71.10
42199;DHT22;27868;45.184;5.786;2023-06-24T03:39:14;20.50;71.80
42199;DHT22;27868;45.184;5.786;2023-06-24T03:41:58;20.50;71.30
42199;DHT22;27868;45.184;5.786;2023-06-24T03:44:43;20.40;71.30
42199;DHT22;27868;45.184;5.786;2023-06-24T03:47:27;20.40;71.30
42199;DHT22;27868;45.184;5.786;2023-06-24T03:50:12;20.40;71.90
42199;DHT22;27868;45.184;5.786;2023-06-24T03:52:57;20.40;71.30
42199;DHT22;27868;45.184;5.786;2023-06-24T03:55:41;20.40;71.40
42199;DHT22;27868;45.184;5.786;2023-06-24T03:58:26;20.30;71.50
42199;DHT22;27868;45.184;5.786;2023-06-24T04:01:10;20.30;71.50
42199;DHT22;27868;45.184;5.786;2023-06-24T04:03:55;20.30;71.60
42199;DHT22;27868;45.184;5.786;2023-06-24T04:06:40;20.30;71.80
42199;DHT22;27868;45.184;5.786;2023-06-24T04:09:24;20.30;72.30
42199;DHT22;27868;45.184;5.786;2023-06-24T04:12:09;20.20;72.20
42199;DHT22;27868;45.184;5.786;2023-06-24T04:14:53;20.20;72.40
42199;DHT22;27868;45.184;5.786;2023-06-24T04:17:38;20.20;72.40
42199;DHT22;27868;45.184;5.786;2023-06-24T04:20:22;20.30;72.50
42199;DHT22;27868;45.184;5.786;2023-06-24T04:23:07;20.30;73.10
42199;DHT22;27868;45.184;5.786;2023-06-24T04:25:54;20.30;72.50
42199;DHT22;27868;45.184;5.786;2023-06-24T04:28:38;20.30;72.60
42199;DHT22;27868;45.184;5.786;2023-06-24T04:31:24;20.20;72.60
42199;DHT22;27868;45.184;5.786;2023-06-24T04:34:09;20.20;72.70
42199;DHT22;27868;45.184;5.786;2023-06-24T04:36:54;20.20;72.70
42199;DHT22;27868;45.184;5.786;2023-06-24T04:39:39;20.30;72.70
42199;DHT22;27868;45.184;5.786;2023-06-24T04:42:23;20.30;72.60
42199;DHT22;27868;45.184;5.786;2023-06-24T04:45:08;20.30;73.30
42199;DHT22;27868;45.184;5.786;2023-06-24T04:47:53;20.30;73.40
42199;DHT22;27868;45.184;5.786;2023-06-24T04:50:37;20.30;72.80
42199;DHT22;27868;45.184;5.786;2023-06-24T04:53:22;20.30;72.90
42199;DHT22;27868;45.184;5.786;2023-06-24T04:56:07;20.30;73.00
42199;DHT22;27868;45.184;5.786;2023-06-24T04:58:51;20.30;73.00
42199;DHT22;27868;45.184;5.786;2023-06-24T05:01:36;20.30;73.30
42199;DHT22;27868;45.184;5.786;2023-06-24T05:04:20;20.30;73.20
42199;DHT22;27868;45.184;5.786;2023-06-24T05:07:05;20.30;73.30
42199;DHT22;27868;45.184;5.786;2023-06-24T05:09:49;20.30;73.60
42199;DHT22;27868;45.184;5.786;2023-06-24T05:12:35;20.30;73.80
42199;DHT22;27868;45.184;5.786;2023-06-24T05:15:20;20.30;73.90
42199;DHT22;27868;45.184;5.786;2023-06-24T05:18:04;20.30;74.00
42199;DHT22;27868;45.184;5.786;2023-06-24T05:20:49;20.30;74.10
42199;DHT22;27868;45.184;5.786;2023-06-24T05:23:34;20.30;74.20
42199;DHT22;27868;45.184;5.786;2023-06-24T05:26:18;20.30;74.20
42199;DHT22;27868;45.184;5.786;2023-06-24T05:29:03;20.30;74.40
42199;DHT22;27868;45.184;5.786;2023-06-24T05:31:47;20.30;74.50
42199;DHT22;27868;45.184;5.786;2023-06-24T05:34:32;20.30;74.50
42199;DHT22;27868;45.184;5.786;2023-06-24T05:37:16;20.30;74.50
42199;DHT22;27868;45.184;5.786;2023-06-24T05:40:01;20.30;74.60
42199;DHT22;27868;45.184;5.786;2023-06-24T05:42:46;20.30;74.70
42199;DHT22;27868;45.184;5.786;2023-06-24T05:45:31;20.30;74.70
42199;DHT22;27868;45.184;5.786;2023-06-24T05:48:15;20.40;74.90
42199;DHT22;27868;45.184;5.786;2023-06-24T05:51:00;20.30;74.90
42199;DHT22;27868;45.184;5.786;2023-06-24T05:53:45;20.30;75.00
42199;DHT22;27868;45.184;5.786;2023-06-24T05:56:29;20.40;75.20
42199;DHT22;27868;45.184;5.786;2023-06-24T05:59:14;20.40;75.30
42199;DHT22;27868;45.184;5.786;2023-06-24T06:01:58;20.50;75.30
42199;DHT22;27868;45.184;5.786;2023-06-24T06:04:43;20.60;75.20
42199;DHT22;27868;45.184;5.786;2023-06-24T06:07:28;20.70;75.10
42199;DHT22;27868;45.184;5.786;2023-06-24T06:10:12;20.80;75.00
42199;DHT22;27868;45.184;5.786;2023-06-24T06:12:59;20.90;75.00
42199;DHT22;27868;45.184;5.786;2023-06-24T06:15:44;21.00;74.90
42199;DHT22;27868;45.184;5.786;2023-06-24T06:18:28;21.10;74.40
42199;DHT22;27868;45.184;5.786;2023-06-24T06:21:13;21.20;74.20
42199;DHT22;27868;45.184;5.786;2023-06-24T06:23:58;21.40;74.80
42199;DHT22;27868;45.184;5.786;2023-06-24T06:26:43;21.40;74.10
42199;DHT22;27868;45.184;5.786;2023-06-24T06:29:28;21.60;74.00
42199;DHT22;27868;45.184;5.786;2023-06-24T06:32:12;21.70;73.60
42199;DHT22;27868;45.184;5.786;2023-06-24T06:34:57;21.70;73.40
42199;DHT22;27868;45.184;5.786;2023-06-24T06:37:42;21.80;73.40
42199;DHT22;27868;45.184;5.786;2023-06-24T06:40:26;21.90;73.70
42199;DHT22;27868;45.184;5.786;2023-06-24T06:43:12;22.00;72.80
42199;DHT22;27868;45.184;5.786;2023-06-24T06:45:57;22.00;72.80
42199;DHT22;27868;45.184;5.786;2023-06-24T06:48:42;22.10;73.00
42199;DHT22;27868;45.184;5.786;2023-06-24T06:51:26;22.10;72.70
42199;DHT22;27868;45.184;5.786;2023-06-24T06:54:11;22.20;72.60
42199;DHT22;27868;45.184;5.786;2023-06-24T06:56:59;22.20;72.30
42199;DHT22;27868;45.184;5.786;2023-06-24T06:59:44;22.30;72.30
42199;DHT22;27868;45.184;5.786;2023-06-24T07:02:28;22.30;71.90
42199;DHT22;27868;45.184;5.786;2023-06-24T07:05:13;22.30;71.00
42199;DHT22;27868;45.184;5.786;2023-06-24T07:07:57;22.20;71.40
42199;DHT22;27868;45.184;5.786;2023-06-24T07:10:45;22.30;71.60
42199;DHT22;27868;45.184;5.786;2023-06-24T07:13:30;22.30;71.00
42199;DHT22;27868;45.184;5.786;2023-06-24T07:16:14;22.40;70.20
42199;DHT22;27868;45.184;5.786;2023-06-24T07:18:59;22.30;70.30
42199;DHT22;27868;45.184;5.786;2023-06-24T07:21:43;22.20;68.00
42199;DHT22;27868;45.184;5.786;2023-06-24T07:24:28;22.30;69.30
42199;DHT22;27868;45.184;5.786;2023-06-24T07:27:13;22.30;69.30
42199;DHT22;27868;45.184;5.786;2023-06-24T07:29:57;22.30;69.60
42199;DHT22;27868;45.184;5.786;2023-06-24T07:32:42;22.40;69.60
42199;DHT22;27868;45.184;5.786;2023-06-24T07:35:27;22.50;69.10
42199;DHT22;27868;45.184;5.786;2023-06-24T07:38:11;22.50;69.20
42199;DHT22;27868;45.184;5.786;2023-06-24T07:40:56;22.50;69.10
42199;DHT22;27868;45.184;5.786;2023-06-24T07:43:41;22.50;68.70
42199;DHT22;27868;45.184;5.786;2023-06-24T07:46:26;22.50;68.50
42199;DHT22;27868;45.184;5.786;2023-06-24T07:49:12;22.60;67.90
42199;DHT22;27868;45.184;5.786;2023-06-24T07:51:56;22.50;68.60
42199;DHT22;27868;45.184;5.786;2023-06-24T07:54:41;22.50;66.90
42199;DHT22;27868;45.184;5.786;2023-06-24T07:57:26;22.60;68.20
42199;DHT22;27868;45.184;5.786;2023-06-24T08:00:11;22.50;66.80
42199;DHT22;27868;45.184;5.786;2023-06-24T08:02:57;22.60;68.20
42199;DHT22;27868;45.184;5.786;2023-06-24T08:05:41;22.60;67.30
42199;DHT22;27868;45.184;5.786;2023-06-24T08:08:26;22.70;66.20
42199;DHT22;27868;45.184;5.786;2023-06-24T08:11:10;22.80;66.00
42199;DHT22;27868;45.184;5.786;2023-06-24T08:13:55;22.80;66.30
42199;DHT22;27868;45.184;5.786;2023-06-24T08:16:39;22.80;67.80
42199;DHT22;27868;45.184;5.786;2023-06-24T08:19:24;22.80;66.80
42199;DHT22;27868;45.184;5.786;2023-06-24T08:22:08;22.80;67.10
42199;DHT22;27868;45.184;5.786;2023-06-24T08:24:53;22.80;66.30
42199;DHT22;27868;45.184;5.786;2023-06-24T08:27:38;22.80;66.90
42199;DHT22;27868;45.184;5.786;2023-06-24T08:30:23;22.90;66.90
42199;DHT22;27868;45.184;5.786;2023-06-24T08:33:07;22.80;66.70
42199;DHT22;27868;45.184;5.786;2023-06-24T08:35:52;22.80;67.00
42199;DHT22;27868;45.184;5.786;2023-06-24T08:38:36;22.80;67.60
42199;DHT22;27868;45.184;5.786;2023-06-24T08:41:22;22.70;67.60
42199;DHT22;27868;45.184;5.786;2023-06-24T08:44:07;22.70;67.40
42199;DHT22;27868;45.184;5.786;2023-06-24T08:46:51;22.80;67.90
42199;DHT22;27868;45.184;5.786;2023-06-24T08:49:38;22.90;67.00
42199;DHT22;27868;45.184;5.786;2023-06-24T08:52:26;22.90;67.50
42199;DHT22;27868;45.184;5.786;2023-06-24T08:55:15;22.90;67.70
42199;DHT22;27868;45.184;5.786;2023-06-24T08:58:00;22.90;67.70
42199;DHT22;27868;45.184;5.786;2023-06-24T09:00:45;22.90;67.90
42199;DHT22;27868;45.184;5.786;2023-06-24T09:03:29;22.90;67.70
42199;DHT22;27868;45.184;5.786;2023-06-24T09:06:14;22.90;67.40
42199;DHT22;27868;45.184;5.786;2023-06-24T09:08:59;23.00;66.60
42199;DHT22;27868;45.184;5.786;2023-06-24T09:11:44;23.10;66.70
42199;DHT22;27868;45.184;5.786;2023-06-24T09:14:34;23.10;65.80
42199;DHT22;27868;45.184;5.786;2023-06-24T09:17:20;23.20;64.70
42199;DHT22;27868;45.184;5.786;2023-06-24T09:20:06;23.20;65.00
42199;DHT22;27868;45.184;5.786;2023-06-24T09:22:51;23.20;65.30
42199;DHT22;27868;45.184;5.786;2023-06-24T09:25:36;23.20;65.40
42199;DHT22;27868;45.184;5.786;2023-06-24T09:28:20;23.30;66.30
42199;DHT22;27868;45.184;5.786;2023-06-24T09:31:08;23.30;65.00
42199;DHT22;27868;45.184;5.786;2023-06-24T09:33:56;23.40;64.20
42199;DHT22;27868;45.184;5.786;2023-06-24T09:36:44;23.40;64.90
42199;DHT22;27868;45.184;5.786;2023-06-24T09:39:34;23.50;65.00
42199;DHT22;27868;45.184;5.786;2023-06-24T09:42:20;23.60;64.30
42199;DHT22;27868;45.184;5.786;2023-06-24T09:45:05;23.70;64.30
42199;DHT22;27868;45.184;5.786;2023-06-24T09:47:50;23.70;64.00
42199;DHT22;27868;45.184;5.786;2023-06-24T09:50:34;23.80;64.40
42199;DHT22;27868;45.184;5.786;2023-06-24T09:53:19;23.90;64.40
42199;DHT22;27868;45.184;5.786;2023-06-24T09:56:04;24.00;63.40
42199;DHT22;27868;45.184;5.786;2023-06-24T09:58:48;24.10;62.80
42199;DHT22;27868;45.184;5.786;2023-06-24T10:01:35;24.30;63.10
42199;DHT22;27868;45.184;5.786;2023-06-24T10:04:21;24.30;62.70
42199;DHT22;27868;45.184;5.786;2023-06-24T10:07:08;24.50;63.50
42199;DHT22;27868;45.184;5.786;2023-06-24T10:09:53;24.60;61.90
42199;DHT22;27868;45.184;5.786;2023-06-24T10:12:37;24.70;62.00
42199;DHT22;27868;45.184;5.786;2023-06-24T10:15:22;24.80;59.20
42199;DHT22;27868;45.184;5.786;2023-06-24T10:21:10;25.10;56.10
42199;DHT22;27868;45.184;5.786;2023-06-24T10:23:55;25.20;56.30
42199;DHT22;27868;45.184;5.786;2023-06-24T10:26:39;25.30;57.50
42199;DHT22;27868;45.184;5.786;2023-06-24T10:29:45;25.40;58.50
42199;DHT22;27868;45.184;5.786;2023-06-24T10:32:39;25.70;59.10
42199;DHT22;27868;45.184;5.786;2023-06-24T10:35:24;25.80;56.10
42199;DHT22;27868;45.184;5.786;2023-06-24T10:38:10;26.10;57.60
42199;DHT22;27868;45.184;5.786;2023-06-24T10:40:54;26.20;56.20
42199;DHT22;27868;45.184;5.786;2023-06-24T10:43:38;26.40;57.80
42199;DHT22;27868;45.184;5.786;2023-06-24T10:46:23;26.70;57.20
42199;DHT22;27868;45.184;5.786;2023-06-24T10:49:11;26.90;57.00
42199;DHT22;27868;45.184;5.786;2023-06-24T10:51:55;27.10;57.10
42199;DHT22;27868;45.184;5.786;2023-06-24T10:54:40;27.30;55.80
42199;DHT22;27868;45.184;5.786;2023-06-24T10:57:26;27.50;54.40
42199;DHT22;27868;45.184;5.786;2023-06-24T11:00:11;27.70;56.60
42199;DHT22;27868;45.184;5.786;2023-06-24T11:02:56;27.90;54.10
42199;DHT22;27868;45.184;5.786;2023-06-24T11:05:41;28.10;55.50
42199;DHT22;27868;45.184;5.786;2023-06-24T11:08:26;28.30;52.90
42199;DHT22;27868;45.184;5.786;2023-06-24T11:11:17;28.20;54.50
42199;DHT22;27868;45.184;5.786;2023-06-24T11:14:02;28.50;55.20
42199;DHT22;27868;45.184;5.786;2023-06-24T11:16:47;28.70;54.30
42199;DHT22;27868;45.184;5.786;2023-06-24T11:19:32;28.90;54.80
42199;DHT22;27868;45.184;5.786;2023-06-24T11:22:17;29.20;54.90
42199;DHT22;27868;45.184;5.786;2023-06-24T11:25:01;29.30;53.30
42199;DHT22;27868;45.184;5.786;2023-06-24T11:27:46;29.50;53.80
42199;DHT22;27868;45.184;5.786;2023-06-24T11:30:33;29.60;54.60
42199;DHT22;27868;45.184;5.786;2023-06-24T11:33:36;29.80;54.20
42199;DHT22;27868;45.184;5.786;2023-06-24T11:36:21;29.70;52.10
42199;DHT22;27868;45.184;5.786;2023-06-24T11:39:06;29.80;54.90
42199;DHT22;27868;45.184;5.786;2023-06-24T11:41:51;30.10;54.00
42199;DHT22;27868;45.184;5.786;2023-06-24T11:44:40;30.20;52.70
42199;DHT22;27868;45.184;5.786;2023-06-24T11:47:24;30.40;52.70
42199;DHT22;27868;45.184;5.786;2023-06-24T11:50:09;30.50;52.50
42199;DHT22;27868;45.184;5.786;2023-06-24T11:52:54;30.50;51.50
42199;DHT22;27868;45.184;5.786;2023-06-24T11:55:38;30.70;53.50
42199;DHT22;27868;45.184;5.786;2023-06-24T11:58:23;30.80;53.60
42199;DHT22;27868;45.184;5.786;2023-06-24T12:01:07;31.10;53.50
42199;DHT22;27868;45.184;5.786;2023-06-24T12:03:53;31.10;53.30
42199;DHT22;27868;45.184;5.786;2023-06-24T12:06:37;31.20;53.20
42199;DHT22;27868;45.184;5.786;2023-06-24T12:09:22;31.50;52.60
42199;DHT22;27868;45.184;5.786;2023-06-24T12:12:06;31.40;49.20
42199;DHT22;27868;45.184;5.786;2023-06-24T12:14:51;31.50;50.60
42199;DHT22;27868;45.184;5.786;2023-06-24T12:17:35;31.60;50.40
42199;DHT22;27868;45.184;5.786;2023-06-24T12:20:20;31.50;51.50
42199;DHT22;27868;45.184;5.786;2023-06-24T12:23:04;31.60;52.20
42199;DHT22;27868;45.184;5.786;2023-06-24T12:25:49;31.80;52.20
42199;DHT22;27868;45.184;5.786;2023-06-24T12:28:34;31.90;52.50
42199;DHT22;27868;45.184;5.786;2023-06-24T12:31:18;31.90;52.30
42199;DHT22;27868;45.184;5.786;2023-06-24T12:34:03;32.10;52.30
42199;DHT22;27868;45.184;5.786;2023-06-24T12:36:49;32.30;52.60
42199;DHT22;27868;45.184;5.786;2023-06-24T12:39:34;32.60;52.90
42199;DHT22;27868;45.184;5.786;2023-06-24T12:42:18;32.60;51.50
42199;DHT22;27868;45.184;5.786;2023-06-24T12:45:03;32.80;51.70
42199;DHT22;27868;45.184;5.786;2023-06-24T12:47:48;32.90;51.40
42199;DHT22;27868;45.184;5.786;2023-06-24T12:50:35;33.00;48.70
42199;DHT22;27868;45.184;5.786;2023-06-24T12:53:36;33.00;50.10
42199;DHT22;27868;45.184;5.786;2023-06-24T12:56:20;33.10;50.20
42199;DHT22;27868;45.184;5.786;2023-06-24T12:59:05;33.00;45.90
42199;DHT22;27868;45.184;5.786;2023-06-24T13:01:50;32.90;48.30
42199;DHT22;27868;45.184;5.786;2023-06-24T13:04:34;32.70;46.20
42199;DHT22;27868;45.184;5.786;2023-06-24T13:07:19;32.80;48.80
42199;DHT22;27868;45.184;5.786;2023-06-24T13:10:04;32.90;49.20
42199;DHT22;27868;45.184;5.786;2023-06-24T13:12:50;33.00;49.80
42199;DHT22;27868;45.184;5.786;2023-06-24T13:15:34;33.10;50.40
42199;DHT22;27868;45.184;5.786;2023-06-24T13:18:19;33.10;49.50
42199;DHT22;27868;45.184;5.786;2023-06-24T13:21:03;33.20;49.40
42199;DHT22;27868;45.184;5.786;2023-06-24T13:23:48;33.30;50.00
42199;DHT22;27868;45.184;5.786;2023-06-24T13:26:32;33.40;49.50
42199;DHT22;27868;45.184;5.786;2023-06-24T13:29:17;33.30;49.30
42199;DHT22;27868;45.184;5.786;2023-06-24T13:32:03;33.20;48.90
42199;DHT22;27868;45.184;5.786;2023-06-24T13:34:48;33.30;48.90
42199;DHT22;27868;45.184;5.786;2023-06-24T13:37:33;33.30;49.20
42199;DHT22;27868;45.184;5.786;2023-06-24T13:40:17;33.30;47.80
42199;DHT22;27868;45.184;5.786;2023-06-24T13:43:02;33.20;47.60
42199;DHT22;27868;45.184;5.786;2023-06-24T13:45:46;33.20;48.20
42199;DHT22;27868;45.184;5.786;2023-06-24T13:48:31;33.20;49.80
42199;DHT22;27868;45.184;5.786;2023-06-24T13:51:16;33.40;49.50
42199;DHT22;27868;45.184;5.786;2023-06-24T13:54:00;33.40;48.40
42199;DHT22;27868;45.184;5.786;2023-06-24T13:56:45;33.40;48.80
42199;DHT22;27868;45.184;5.786;2023-06-24T13:59:29;33.50;47.30
42199;DHT22;27868;45.184;5.786;2023-06-24T14:02:14;33.20;47.80
42199;DHT22;27868;45.184;5.786;2023-06-24T14:04:59;33.40;48.70
42199;DHT22;27868;45.184;5.786;2023-06-24T14:07:43;33.40;49.00
42199;DHT22;27868;45.184;5.786;2023-06-24T14:10:28;33.40;48.60
42199;DHT22;27868;45.184;5.786;2023-06-24T14:13:12;33.50;49.30
42199;DHT22;27868;45.184;5.786;2023-06-24T14:15:56;33.60;49.20
42199;DHT22;27868;45.184;5.786;2023-06-24T14:18:41;33.60;49.30
42199;DHT22;27868;45.184;5.786;2023-06-24T14:21:26;33.50;47.80
42199;DHT22;27868;45.184;5.786;2023-06-24T14:24:11;33.50;49.00
42199;DHT22;27868;45.184;5.786;2023-06-24T14:26:55;33.50;48.30
42199;DHT22;27868;45.184;5.786;2023-06-24T14:29:40;33.60;48.90
42199;DHT22;27868;45.184;5.786;2023-06-24T14:32:24;33.50;48.80
42199;DHT22;27868;45.184;5.786;2023-06-24T14:35:09;33.50;49.10
42199;DHT22;27868;45.184;5.786;2023-06-24T14:37:53;33.50;49.20
42199;DHT22;27868;45.184;5.786;2023-06-24T14:40:38;33.50;48.60
42199;DHT22;27868;45.184;5.786;2023-06-24T14:43:22;33.20;48.60
42199;DHT22;27868;45.184;5.786;2023-06-24T14:46:07;33.30;48.80
42199;DHT22;27868;45.184;5.786;2023-06-24T14:48:51;33.30;47.90
42199;DHT22;27868;45.184;5.786;2023-06-24T14:51:36;33.20;47.00
42199;DHT22;27868;45.184;5.786;2023-06-24T14:54:21;33.20;49.30
42199;DHT22;27868;45.184;5.786;2023-06-24T14:57:06;33.10;49.30
42199;DHT22;27868;45.184;5.786;2023-06-24T14:59:51;33.20;49.10
42199;DHT22;27868;45.184;5.786;2023-06-24T15:02:35;33.10;49.50
42199;DHT22;27868;45.184;5.786;2023-06-24T15:05:19;33.00;49.40
42199;DHT22;27868;45.184;5.786;2023-06-24T15:08:04;32.90;48.30
42199;DHT22;27868;45.184;5.786;2023-06-24T15:10:49;32.80;49.00
42199;DHT22;27868;45.184;5.786;2023-06-24T15:13:33;32.80;50.30
42199;DHT22;27868;45.184;5.786;2023-06-24T15:16:18;32.90;48.90
42199;DHT22;27868;45.184;5.786;2023-06-24T15:19:02;32.80;48.50
42199;DHT22;27868;45.184;5.786;2023-06-24T15:21:47;32.80;49.20
42199;DHT22;27868;45.184;5.786;2023-06-24T15:24:31;32.70;49.60
42199;DHT22;27868;45.184;5.786;2023-06-24T15:27:16;32.50;49.90
42199;DHT22;27868;45.184;5.786;2023-06-24T15:30:00;32.50;50.60
42199;DHT22;27868;45.184;5.786;2023-06-24T15:32:45;32.50;50.80
42199;DHT22;27868;45.184;5.786;2023-06-24T15:35:30;32.40;50.70
42199;DHT22;27868;45.184;5.786;2023-06-24T15:38:15;32.40;51.00
42199;DHT22;27868;45.184;5.786;2023-06-24T15:41:00;32.30;50.70
42199;DHT22;27868;45.184;5.786;2023-06-24T15:43:44;32.20;50.70
42199;DHT22;27868;45.184;5.786;2023-06-24T15:46:29;32.10;51.00
42199;DHT22;27868;45.184;5.786;2023-06-24T15:49:16;32.00;50.40
42199;DHT22;27868;45.184;5.786;2023-06-24T15:52:01;31.90;50.20
42199;DHT22;27868;45.184;5.786;2023-06-24T15:54:45;31.80;51.10
42199;DHT22;27868;45.184;5.786;2023-06-24T15:57:30;31.80;51.50
42199;DHT22;27868;45.184;5.786;2023-06-24T16:00:15;31.70;50.60
42199;DHT22;27868;45.184;5.786;2023-06-24T16:03:00;31.70;50.80
42199;DHT22;27868;45.184;5.786;2023-06-24T16:05:44;31.60;51.00
42199;DHT22;27868;45.184;5.786;2023-06-24T16:08:29;31.50;51.50
42199;DHT22;27868;45.184;5.786;2023-06-24T16:11:13;31.40;52.10
42199;DHT22;27868;45.184;5.786;2023-06-24T16:13:58;31.30;52.80
42199;DHT22;27868;45.184;5.786;2023-06-24T16:16:42;31.40;52.70
42199;DHT22;27868;45.184;5.786;2023-06-24T16:19:27;31.20;53.00
42199;DHT22;27868;45.184;5.786;2023-06-24T16:22:12;31.20;52.70
42199;DHT22;27868;45.184;5.786;2023-06-24T16:24:57;31.20;52.10
42199;DHT22;27868;45.184;5.786;2023-06-24T16:27:41;31.10;52.60
42199;DHT22;27868;45.184;5.786;2023-06-24T16:30:25;31.10;52.90
42199;DHT22;27868;45.184;5.786;2023-06-24T16:33:10;31.00;53.10
42199;DHT22;27868;45.184;5.786;2023-06-24T16:35:54;31.00;50.00
42199;DHT22;27868;45.184;5.786;2023-06-24T16:38:39;31.00;52.70
42199;DHT22;27868;45.184;5.786;2023-06-24T16:41:23;30.90;52.40
42199;DHT22;27868;45.184;5.786;2023-06-24T16:44:08;30.90;52.60
42199;DHT22;27868;45.184;5.786;2023-06-24T16:46:52;30.90;52.40
42199;DHT22;27868;45.184;5.786;2023-06-24T16:49:37;30.80;51.90
42199;DHT22;27868;45.184;5.786;2023-06-24T16:52:22;30.80;52.30
42199;DHT22;27868;45.184;5.786;2023-06-24T16:55:06;30.80;52.50
42199;DHT22;27868;45.184;5.786;2023-06-24T16:57:51;30.80;52.20
42199;DHT22;27868;45.184;5.786;2023-06-24T17:00:35;30.70;51.40
42199;DHT22;27868;45.184;5.786;2023-06-24T17:03:20;30.60;51.10
42199;DHT22;27868;45.184;5.786;2023-06-24T17:06:04;30.50;50.90
42199;DHT22;27868;45.184;5.786;2023-06-24T17:08:49;30.50;51.60
42199;DHT22;27868;45.184;5.786;2023-06-24T17:11:34;30.50;51.20
42199;DHT22;27868;45.184;5.786;2023-06-24T17:14:18;30.50;52.20
42199;DHT22;27868;45.184;5.786;2023-06-24T17:17:03;30.40;51.90
42199;DHT22;27868;45.184;5.786;2023-06-24T17:19:48;30.30;52.10
42199;DHT22;27868;45.184;5.786;2023-06-24T17:22:32;30.30;51.00
42199;DHT22;27868;45.184;5.786;2023-06-24T17:25:17;30.20;51.70
42199;DHT22;27868;45.184;5.786;2023-06-24T17:28:02;30.30;52.00
42199;DHT22;27868;45.184;5.786;2023-06-24T17:30:46;30.20;52.20
42199;DHT22;27868;45.184;5.786;2023-06-24T17:33:31;30.20;52.20
42199;DHT22;27868;45.184;5.786;2023-06-24T17:36:15;30.20;52.40